Armorel, Arkansas
Current Conditions -  °F | °C
As of 2:53 PM on Friday 24 Oct 2014 (Local Time) from KHKA Reporting Station
Clear Clear  
Wind Chill: 75°   Ceiling: Unl
Heat Index: 75°   Visibility: 10mi
Dew Point: 54°   Wind: 7mph
Humidity: 48%   Direction: 320°NW
Pressure: 30.08"   Gusts: NA
Location:  35.92°N, 89.8°W
Report Text: KHKA 241953Z AUTO 32006KT 10SM CLR 24/12 A3008 RMK AO2 SLP185 T02390122
Loading
Personal Weather Stations






























Interactive Weather Map New forecast layout! Learn more

10-Day Weather Forecast

Advertisements
Track Severe Weather on mobile